sensor_id;sensor_type;location;lat;lon;timestamp;pressure;altitude;pressure_sealevel;temperature;humidity
69982;BME280;57319;56.274;43.980;2022-12-07T00:01:06;101503.91;;;-10.09;66.85
69982;BME280;57319;56.274;43.980;2022-12-07T00:03:33;101504.03;;;-10.07;66.57
69982;BME280;57319;56.274;43.980;2022-12-07T00:05:59;101497.00;;;-10.11;66.72
69982;BME280;57319;56.274;43.980;2022-12-07T00:08:25;101493.22;;;-10.08;66.49
69982;BME280;57319;56.274;43.980;2022-12-07T00:10:51;101501.53;;;-10.16;66.34
69982;BME280;57319;56.274;43.980;2022-12-07T00:13:16;101496.84;;;-10.21;66.00
69982;BME280;57319;56.274;43.980;2022-12-07T00:15:42;101500.06;;;-10.23;67.07
69982;BME280;57319;56.274;43.980;2022-12-07T00:18:08;101489.22;;;-10.23;66.71
69982;BME280;57319;56.274;43.980;2022-12-07T00:20:33;101494.50;;;-10.29;67.39
69982;BME280;57319;56.274;43.980;2022-12-07T00:22:59;101492.72;;;-10.30;66.42
69982;BME280;57319;56.274;43.980;2022-12-07T00:25:26;101493.31;;;-10.24;66.81
69982;BME280;57319;56.274;43.980;2022-12-07T00:27:53;101491.56;;;-10.25;66.72
69982;BME280;57319;56.274;43.980;2022-12-07T00:30:21;101485.53;;;-10.27;67.06
69982;BME280;57319;56.274;43.980;2022-12-07T00:32:47;101497.28;;;-10.26;67.50
69982;BME280;57319;56.274;43.980;2022-12-07T00:35:13;101500.03;;;-10.31;66.49
69982;BME280;57319;56.274;43.980;2022-12-07T00:37:39;101488.19;;;-10.25;66.52
69982;BME280;57319;56.274;43.980;2022-12-07T00:40:05;101484.25;;;-10.23;66.60
69982;BME280;57319;56.274;43.980;2022-12-07T00:42:31;101491.88;;;-10.21;66.76
69982;BME280;57319;56.274;43.980;2022-12-07T00:44:56;101490.66;;;-10.25;67.00
69982;BME280;57319;56.274;43.980;2022-12-07T00:47:22;101485.28;;;-10.38;67.59
69982;BME280;57319;56.274;43.980;2022-12-07T00:49:48;101491.66;;;-10.32;67.73
69982;BME280;57319;56.274;43.980;2022-12-07T00:52:13;101487.75;;;-10.38;67.58
69982;BME280;57319;56.274;43.980;2022-12-07T00:54:39;101497.13;;;-10.36;67.89
69982;BME280;57319;56.274;43.980;2022-12-07T00:57:05;101500.63;;;-10.34;67.96
69982;BME280;57319;56.274;43.980;2022-12-07T00:59:31;101494.81;;;-10.34;67.17
69982;BME280;57319;56.274;43.980;2022-12-07T01:01:57;101499.78;;;-10.34;68.04
69982;BME280;57319;56.274;43.980;2022-12-07T01:04:22;101495.38;;;-10.37;67.96
69982;BME280;57319;56.274;43.980;2022-12-07T01:06:48;101493.47;;;-10.39;68.12
69982;BME280;57319;56.274;43.980;2022-12-07T01:09:14;101486.56;;;-10.42;67.75
69982;BME280;57319;56.274;43.980;2022-12-07T01:11:39;101489.34;;;-10.48;67.98
69982;BME280;57319;56.274;43.980;2022-12-07T01:14:05;101491.19;;;-10.54;67.64
69982;BME280;57319;56.274;43.980;2022-12-07T01:16:32;101490.31;;;-10.54;68.18
69982;BME280;57319;56.274;43.980;2022-12-07T01:18:59;101495.75;;;-10.50;67.92
69982;BME280;57319;56.274;43.980;2022-12-07T01:21:30;101486.97;;;-10.55;69.06
69982;BME280;57319;56.274;43.980;2022-12-07T01:24:00;101487.84;;;-10.54;68.86
69982;BME280;57319;56.274;43.980;2022-12-07T01:26:26;101490.78;;;-10.50;68.32
69982;BME280;57319;56.274;43.980;2022-12-07T01:28:52;101489.91;;;-10.50;68.00
69982;BME280;57319;56.274;43.980;2022-12-07T01:31:22;101488.56;;;-10.55;67.78
69982;BME280;57319;56.274;43.980;2022-12-07T01:33:51;101493.53;;;-10.55;68.00
69982;BME280;57319;56.274;43.980;2022-12-07T01:36:20;101491.31;;;-10.61;68.92
69982;BME280;57319;56.274;43.980;2022-12-07T01:38:48;101491.31;;;-10.61;68.89
69982;BME280;57319;56.274;43.980;2022-12-07T01:41:16;101484.28;;;-10.65;68.48
69982;BME280;57319;56.274;43.980;2022-12-07T01:44:08;101486.19;;;-10.63;69.35
69982;BME280;57319;56.274;43.980;2022-12-07T01:46:34;101480.34;;;-10.63;69.23
69982;BME280;57319;56.274;43.980;2022-12-07T01:49:01;101484.28;;;-10.65;68.87
69982;BME280;57319;56.274;43.980;2022-12-07T01:51:28;101481.22;;;-10.63;68.66
69982;BME280;57319;56.274;43.980;2022-12-07T01:53:54;101480.66;;;-10.60;68.82
69982;BME280;57319;56.274;43.980;2022-12-07T01:56:23;101495.28;;;-10.63;68.96
69982;BME280;57319;56.274;43.980;2022-12-07T01:58:50;101488.53;;;-10.64;67.97
69982;BME280;57319;56.274;43.980;2022-12-07T02:01:17;101483.25;;;-10.67;67.78
69982;BME280;57319;56.274;43.980;2022-12-07T02:03:44;101490.13;;;-10.65;67.55
69982;BME280;57319;56.274;43.980;2022-12-07T02:06:13;101486.19;;;-10.63;67.49
69982;BME280;57319;56.274;43.980;2022-12-07T02:08:41;101491.34;;;-10.52;66.91
69982;BME280;57319;56.274;43.980;2022-12-07T02:11:08;101495.59;;;-10.51;66.47
69982;BME280;57319;56.274;43.980;2022-12-07T02:13:36;101483.31;;;-10.50;66.92
69982;BME280;57319;56.274;43.980;2022-12-07T02:35:19;101494.47;;;-10.46;65.65
69982;BME280;57319;56.274;43.980;2022-12-07T02:38:07;101495.47;;;-10.44;66.42
69982;BME280;57319;56.274;43.980;2022-12-07T02:40:43;101490.50;;;-10.44;65.94
69982;BME280;57319;56.274;43.980;2022-12-07T02:43:16;101483.63;;;-10.47;65.98
69982;BME280;57319;56.274;43.980;2022-12-07T02:45:43;101492.25;;;-10.43;66.69
69982;BME280;57319;56.274;43.980;2022-12-07T02:48:12;101495.44;;;-10.53;66.40
69982;BME280;57319;56.274;43.980;2022-12-07T02:50:39;101489.47;;;-10.55;66.78
69982;BME280;57319;56.274;43.980;2022-12-07T02:53:04;101487.72;;;-10.47;66.86
69982;BME280;57319;56.274;43.980;2022-12-07T02:55:36;101493.41;;;-10.48;65.68
69982;BME280;57319;56.274;43.980;2022-12-07T03:03:31;101487.56;;;-10.49;66.06
69982;BME280;57319;56.274;43.980;2022-12-07T03:06:08;101500.31;;;-10.46;66.50
69982;BME280;57319;56.274;43.980;2022-12-07T03:11:17;101496.16;;;-10.54;66.05
69982;BME280;57319;56.274;43.980;2022-12-07T03:13:56;101503.50;;;-10.55;66.18
69982;BME280;57319;56.274;43.980;2022-12-07T03:16:33;101505.69;;;-10.59;66.78
69982;BME280;57319;56.274;43.980;2022-12-07T03:19:10;101505.97;;;-10.64;66.62
69982;BME280;57319;56.274;43.980;2022-12-07T03:21:39;101509.72;;;-10.68;66.18
69982;BME280;57319;56.274;43.980;2022-12-07T03:24:13;101494.94;;;-10.66;66.17
69982;BME280;57319;56.274;43.980;2022-12-07T03:26:44;101495.84;;;-10.66;66.46
69982;BME280;57319;56.274;43.980;2022-12-07T03:29:20;101497.44;;;-10.66;66.53
69982;BME280;57319;56.274;43.980;2022-12-07T03:31:53;101491.44;;;-10.68;67.38
69982;BME280;57319;56.274;43.980;2022-12-07T03:34:31;101492.31;;;-10.68;67.29
69982;BME280;57319;56.274;43.980;2022-12-07T03:37:08;101490.72;;;-10.67;66.83
69982;BME280;57319;56.274;43.980;2022-12-07T03:39:49;101495.69;;;-10.67;67.18
69982;BME280;57319;56.274;43.980;2022-12-07T03:42:20;101503.88;;;-10.68;67.02
69982;BME280;57319;56.274;43.980;2022-12-07T03:44:47;101509.88;;;-10.66;67.48
69982;BME280;57319;56.274;43.980;2022-12-07T03:49:51;101501.56;;;-10.67;67.69
69982;BME280;57319;56.274;43.980;2022-12-07T03:55:05;101509.88;;;-10.66;67.67
69982;BME280;57319;56.274;43.980;2022-12-07T03:57:34;101512.50;;;-10.73;68.47
69982;BME280;57319;56.274;43.980;2022-12-07T04:00:00;101521.31;;;-10.68;69.02
69982;BME280;57319;56.274;43.980;2022-12-07T04:02:29;101515.25;;;-10.79;69.22
69982;BME280;57319;56.274;43.980;2022-12-07T04:04:55;101519.03;;;-10.83;69.74
69982;BME280;57319;56.274;43.980;2022-12-07T04:07:21;101521.50;;;-10.83;69.50
69982;BME280;57319;56.274;43.980;2022-12-07T04:09:47;101518.53;;;-10.96;70.00
69982;BME280;57319;56.274;43.980;2022-12-07T04:12:12;101520.28;;;-10.95;69.65
69982;BME280;57319;56.274;43.980;2022-12-07T04:14:38;101518.34;;;-10.98;69.91
69982;BME280;57319;56.274;43.980;2022-12-07T04:17:04;101523.31;;;-10.98;70.35
69982;BME280;57319;56.274;43.980;2022-12-07T04:19:32;101520.94;;;-11.05;71.03
69982;BME280;57319;56.274;43.980;2022-12-07T04:21:59;101517.03;;;-11.03;70.54
69982;BME280;57319;56.274;43.980;2022-12-07T04:24:26;101517.28;;;-11.09;70.68
69982;BME280;57319;56.274;43.980;2022-12-07T04:26:52;101503.59;;;-11.21;70.76
69982;BME280;57319;56.274;43.980;2022-12-07T04:29:18;101513.44;;;-11.14;70.58
69982;BME280;57319;56.274;43.980;2022-12-07T04:31:44;101529.34;;;-11.20;70.66
69982;BME280;57319;56.274;43.980;2022-12-07T04:34:11;101513.69;;;-11.19;71.55
69982;BME280;57319;56.274;43.980;2022-12-07T04:36:37;101516.44;;;-11.25;71.93
69982;BME280;57319;56.274;43.980;2022-12-07T04:39:04;101518.75;;;-11.27;71.41
69982;BME280;57319;56.274;43.980;2022-12-07T04:41:30;101520.78;;;-11.31;72.16
69982;BME280;57319;56.274;43.980;2022-12-07T04:43:58;101527.50;;;-11.30;72.02
69982;BME280;57319;56.274;43.980;2022-12-07T04:46:25;101530.72;;;-11.31;72.43
69982;BME280;57319;56.274;43.980;2022-12-07T04:48:51;101528.47;;;-11.37;72.00
69982;BME280;57319;56.274;43.980;2022-12-07T04:51:20;101526.56;;;-11.39;72.80
69982;BME280;57319;56.274;43.980;2022-12-07T04:53:47;101528.34;;;-11.38;72.48
69982;BME280;57319;56.274;43.980;2022-12-07T04:56:13;101529.69;;;-11.33;72.57
69982;BME280;57319;56.274;43.980;2022-12-07T04:58:39;101541.22;;;-11.34;73.21
69982;BME280;57319;56.274;43.980;2022-12-07T05:01:05;101535.53;;;-11.33;73.34
69982;BME280;57319;56.274;43.980;2022-12-07T05:03:30;101530.81;;;-11.38;73.59
69982;BME280;57319;56.274;43.980;2022-12-07T05:05:56;101536.09;;;-11.35;72.87
69982;BME280;57319;56.274;43.980;2022-12-07T05:08:22;101545.88;;;-11.37;73.89
69982;BME280;57319;56.274;43.980;2022-12-07T05:10:49;101539.69;;;-11.40;73.70
69982;BME280;57319;56.274;43.980;2022-12-07T05:13:15;101546.91;;;-11.35;73.46
69982;BME280;57319;56.274;43.980;2022-12-07T05:15:41;101542.69;;;-11.36;74.06
69982;BME280;57319;56.274;43.980;2022-12-07T05:18:10;101546.19;;;-11.34;74.63
69982;BME280;57319;56.274;43.980;2022-12-07T05:20:38;101545.63;;;-11.31;74.09
69982;BME280;57319;56.274;43.980;2022-12-07T05:23:04;101554.75;;;-11.23;74.67
69982;BME280;57319;56.274;43.980;2022-12-07T05:25:30;101550.66;;;-11.22;74.11
69982;BME280;57319;56.274;43.980;2022-12-07T05:27:56;101545.69;;;-11.22;74.20
69982;BME280;57319;56.274;43.980;2022-12-07T05:30:23;101544.56;;;-11.17;74.57
69982;BME280;57319;56.274;43.980;2022-12-07T05:32:49;101541.38;;;-11.16;74.39
69982;BME280;57319;56.274;43.980;2022-12-07T05:35:15;101549.53;;;-11.17;73.93
69982;BME280;57319;56.274;43.980;2022-12-07T05:37:40;101546.28;;;-11.25;73.65
69982;BME280;57319;56.274;43.980;2022-12-07T05:40:06;101548.50;;;-11.19;74.23
69982;BME280;57319;56.274;43.980;2022-12-07T05:42:32;101551.47;;;-11.15;74.17
69982;BME280;57319;56.274;43.980;2022-12-07T05:44:58;101548.97;;;-11.15;74.43
69982;BME280;57319;56.274;43.980;2022-12-07T05:47:23;101543.19;;;-11.22;73.99
69982;BME280;57319;56.274;43.980;2022-12-07T05:49:49;101538.00;;;-11.17;74.36
69982;BME280;57319;56.274;43.980;2022-12-07T05:52:15;101546.06;;;-11.11;74.21
69982;BME280;57319;56.274;43.980;2022-12-07T05:54:41;101547.53;;;-11.13;74.13
69982;BME280;57319;56.274;43.980;2022-12-07T05:57:07;101541.91;;;-11.19;73.54
69982;BME280;57319;56.274;43.980;2022-12-07T05:59:32;101542.06;;;-11.17;73.77
69982;BME280;57319;56.274;43.980;2022-12-07T06:02:10;101539.44;;;-11.19;73.89
69982;BME280;57319;56.274;43.980;2022-12-07T06:04:39;101537.81;;;-11.18;73.19
69982;BME280;57319;56.274;43.980;2022-12-07T06:07:05;101541.63;;;-11.22;73.56
69982;BME280;57319;56.274;43.980;2022-12-07T06:09:32;101534.16;;;-11.22;73.58
69982;BME280;57319;56.274;43.980;2022-12-07T06:11:58;101538.41;;;-11.21;72.94
69982;BME280;57319;56.274;43.980;2022-12-07T06:14:43;101537.34;;;-11.23;73.72
69982;BME280;57319;56.274;43.980;2022-12-07T06:17:09;101538.56;;;-11.19;73.47
69982;BME280;57319;56.274;43.980;2022-12-07T06:19:35;101530.34;;;-11.18;73.16
69982;BME280;57319;56.274;43.980;2022-12-07T06:22:02;101546.78;;;-11.12;73.44
69982;BME280;57319;56.274;43.980;2022-12-07T06:24:30;101537.25;;;-11.16;72.78
69982;BME280;57319;56.274;43.980;2022-12-07T06:26:56;101546.78;;;-11.12;73.13
69982;BME280;57319;56.274;43.980;2022-12-07T06:29:23;101538.78;;;-11.09;73.11
69982;BME280;57319;56.274;43.980;2022-12-07T06:31:49;101542.78;;;-11.02;72.48
69982;BME280;57319;56.274;43.980;2022-12-07T06:34:18;101542.56;;;-11.13;72.20
69982;BME280;57319;56.274;43.980;2022-12-07T06:36:44;101544.16;;;-11.13;72.34
69982;BME280;57319;56.274;43.980;2022-12-07T06:39:11;101538.72;;;-11.18;72.31
69982;BME280;57319;56.274;43.980;2022-12-07T06:41:37;101540.91;;;-11.21;72.45
69982;BME280;57319;56.274;43.980;2022-12-07T06:44:06;101544.16;;;-11.13;72.94
69982;BME280;57319;56.274;43.980;2022-12-07T06:46:32;101549.78;;;-11.07;72.25
69982;BME280;57319;56.274;43.980;2022-12-07T06:48:58;101534.69;;;-11.09;71.79
69982;BME280;57319;56.274;43.980;2022-12-07T06:51:24;101539.25;;;-11.04;71.65
69982;BME280;57319;56.274;43.980;2022-12-07T06:53:49;101533.53;;;-11.03;71.45
69982;BME280;57319;56.274;43.980;2022-12-07T06:56:15;101534.59;;;-11.01;71.69
69982;BME280;57319;56.274;43.980;2022-12-07T06:58:41;101543.81;;;-11.00;71.15
69982;BME280;57319;56.274;43.980;2022-12-07T07:01:12;101546.38;;;-11.07;70.36
69982;BME280;57319;56.274;43.980;2022-12-07T07:03:39;101547.13;;;-11.09;70.83
69982;BME280;57319;56.274;43.980;2022-12-07T07:06:06;101547.03;;;-11.01;70.63
69982;BME280;57319;56.274;43.980;2022-12-07T07:08:33;101547.19;;;-11.00;70.76
69982;BME280;57319;56.274;43.980;2022-12-07T07:10:59;101559.31;;;-11.03;70.89
69982;BME280;57319;56.274;43.980;2022-12-07T07:13:26;101561.03;;;-11.02;70.85
69982;BME280;57319;56.274;43.980;2022-12-07T07:15:54;101558.34;;;-10.96;70.02
69982;BME280;57319;56.274;43.980;2022-12-07T07:18:20;101546.22;;;-11.09;70.34
69982;BME280;57319;56.274;43.980;2022-12-07T07:20:45;101569.09;;;-11.04;70.18
69982;BME280;57319;56.274;43.980;2022-12-07T07:23:11;101562.91;;;-11.08;70.26
69982;BME280;57319;56.274;43.980;2022-12-07T07:25:37;101560.13;;;-11.11;69.89
69982;BME280;57319;56.274;43.980;2022-12-07T07:28:03;101558.91;;;-10.99;70.31
69982;BME280;57319;56.274;43.980;2022-12-07T07:30:29;101571.63;;;-10.96;70.11
69982;BME280;57319;56.274;43.980;2022-12-07T07:32:59;101560.47;;;-10.99;69.71
69982;BME280;57319;56.274;43.980;2022-12-07T07:35:26;101562.91;;;-11.08;69.99
69982;BME280;57319;56.274;43.980;2022-12-07T07:37:52;101566.03;;;-11.02;69.27
69982;BME280;57319;56.274;43.980;2022-12-07T07:40:18;101566.78;;;-11.03;69.93
69982;BME280;57319;56.274;43.980;2022-12-07T07:42:43;101560.97;;;-10.95;69.88
69982;BME280;57319;56.274;43.980;2022-12-07T07:45:09;101562.56;;;-10.95;69.58
69982;BME280;57319;56.274;43.980;2022-12-07T07:47:35;101561.28;;;-10.92;68.85
69982;BME280;57319;56.274;43.980;2022-12-07T07:50:01;101556.75;;;-10.87;69.13
69982;BME280;57319;56.274;43.980;2022-12-07T07:52:27;101558.53;;;-10.86;69.62
69982;BME280;57319;56.274;43.980;2022-12-07T07:54:53;101565.44;;;-10.83;69.10
69982;BME280;57319;56.274;43.980;2022-12-07T07:57:18;101566.72;;;-10.87;69.04
69982;BME280;57319;56.274;43.980;2022-12-07T07:59:47;101555.88;;;-10.87;68.69
69982;BME280;57319;56.274;43.980;2022-12-07T08:02:18;101560.34;;;-10.76;69.29
69982;BME280;57319;56.274;43.980;2022-12-07T08:04:44;101553.59;;;-10.77;68.83
69982;BME280;57319;56.274;43.980;2022-12-07T08:07:11;101557.28;;;-10.73;69.07
69982;BME280;57319;56.274;43.980;2022-12-07T08:09:37;101559.34;;;-10.69;69.10
69982;BME280;57319;56.274;43.980;2022-12-07T08:12:03;101561.44;;;-10.65;68.11
69982;BME280;57319;56.274;43.980;2022-12-07T08:14:29;101559.56;;;-10.59;67.88
69982;BME280;57319;56.274;43.980;2022-12-07T08:16:55;101552.81;;;-10.60;68.44
69982;BME280;57319;56.274;43.980;2022-12-07T08:19:21;101541.94;;;-10.69;67.50
69982;BME280;57319;56.274;43.980;2022-12-07T08:21:46;101558.09;;;-10.57;67.40
69982;BME280;57319;56.274;43.980;2022-12-07T08:24:13;101548.19;;;-10.73;68.29
69982;BME280;57319;56.274;43.980;2022-12-07T08:26:38;101554.38;;;-10.69;68.58
69982;BME280;57319;56.274;43.980;2022-12-07T08:29:04;101554.13;;;-10.64;67.50
69982;BME280;57319;56.274;43.980;2022-12-07T08:31:30;101556.47;;;-10.57;67.71
69982;BME280;57319;56.274;43.980;2022-12-07T08:33:56;101563.28;;;-10.47;67.47
69982;BME280;57319;56.274;43.980;2022-12-07T08:36:22;101557.16;;;-10.42;67.18
69982;BME280;57319;56.274;43.980;2022-12-07T08:38:49;101551.63;;;-10.30;66.60
69982;BME280;57319;56.274;43.980;2022-12-07T08:41:15;101545.31;;;-10.35;66.04
69982;BME280;57319;56.274;43.980;2022-12-07T08:43:41;101557.88;;;-10.34;66.53
69982;BME280;57319;56.274;43.980;2022-12-07T08:46:13;101546.78;;;-10.29;67.31
69982;BME280;57319;56.274;43.980;2022-12-07T08:48:48;101545.03;;;-10.21;66.95
69982;BME280;57319;56.274;43.980;2022-12-07T08:51:15;101546.66;;;-10.21;65.85
69982;BME280;57319;56.274;43.980;2022-12-07T08:53:41;101543.88;;;-10.16;66.35
69982;BME280;57319;56.274;43.980;2022-12-07T08:56:08;101555.63;;;-10.15;65.95
69982;BME280;57319;56.274;43.980;2022-12-07T08:58:35;101547.66;;;-10.19;66.52
69982;BME280;57319;56.274;43.980;2022-12-07T09:01:02;101540.31;;;-10.27;67.14
69982;BME280;57319;56.274;43.980;2022-12-07T09:03:28;101551.78;;;-10.20;67.17
69982;BME280;57319;56.274;43.980;2022-12-07T09:05:54;101550.94;;;-10.12;67.27
69982;BME280;57319;56.274;43.980;2022-12-07T09:08:22;101564.00;;;-10.06;67.63
69982;BME280;57319;56.274;43.980;2022-12-07T09:10:51;101559.03;;;-10.06;66.99
69982;BME280;57319;56.274;43.980;2022-12-07T09:13:17;101552.00;;;-10.01;67.63
69982;BME280;57319;56.274;43.980;2022-12-07T09:15:42;101558.88;;;-9.98;67.47
69982;BME280;57319;56.274;43.980;2022-12-07T09:18:08;101559.03;;;-10.06;67.65
69982;BME280;57319;56.274;43.980;2022-12-07T09:20:33;101561.34;;;-10.07;67.73
69982;BME280;57319;56.274;43.980;2022-12-07T09:22:59;101555.75;;;-10.13;68.24
69982;BME280;57319;56.274;43.980;2022-12-07T09:25:25;101560.63;;;-10.06;68.55
69982;BME280;57319;56.274;43.980;2022-12-07T09:27:58;101560.22;;;-9.93;68.26
69982;BME280;57319;56.274;43.980;2022-12-07T09:30:24;101551.72;;;-9.95;67.97
69982;BME280;57319;56.274;43.980;2022-12-07T09:32:52;101553.03;;;-9.90;68.19
69982;BME280;57319;56.274;43.980;2022-12-07T09:35:18;101544.72;;;-9.82;67.71
69982;BME280;57319;56.274;43.980;2022-12-07T09:37:44;101554.81;;;-9.72;67.87
69982;BME280;57319;56.274;43.980;2022-12-07T09:40:10;101560.41;;;-9.57;67.58
69982;BME280;57319;56.274;43.980;2022-12-07T09:42:38;101553.22;;;-9.53;67.58
69982;BME280;57319;56.274;43.980;2022-12-07T09:45:15;101566.44;;;-9.46;67.38
69982;BME280;57319;56.274;43.980;2022-12-07T09:47:41;101554.56;;;-9.31;67.33
69982;BME280;57319;56.274;43.980;2022-12-07T09:50:19;101548.69;;;-9.23;66.73
69982;BME280;57319;56.274;43.980;2022-12-07T09:52:47;101553.09;;;-9.20;65.88
69982;BME280;57319;56.274;43.980;2022-12-07T09:55:16;101540.91;;;-9.08;65.80
69982;BME280;57319;56.274;43.980;2022-12-07T09:57:42;101545.00;;;-8.91;65.70
69982;BME280;57319;56.274;43.980;2022-12-07T10:00:17;101539.97;;;-8.82;65.85
69982;BME280;57319;56.274;43.980;2022-12-07T10:02:50;101540.25;;;-8.71;65.99
69982;BME280;57319;56.274;43.980;2022-12-07T10:05:20;101526.41;;;-8.58;65.29
69982;BME280;57319;56.274;43.980;2022-12-07T10:07:47;101537.53;;;-8.46;65.80
69982;BME280;57319;56.274;43.980;2022-12-07T10:10:19;101538.91;;;-8.58;65.55
69982;BME280;57319;56.274;43.980;2022-12-07T10:13:15;101535.22;;;-8.53;65.55
69982;BME280;57319;56.274;43.980;2022-12-07T10:15:57;101535.03;;;-8.46;66.13
69982;BME280;57319;56.274;43.980;2022-12-07T10:18:29;101538.63;;;-8.33;65.31
69982;BME280;57319;56.274;43.980;2022-12-07T10:21:10;101543.13;;;-8.48;65.56
69982;BME280;57319;56.274;43.980;2022-12-07T10:23:42;101536.00;;;-8.44;65.85
69982;BME280;57319;56.274;43.980;2022-12-07T10:29:34;101527.78;;;-8.43;66.11
69982;BME280;57319;56.274;43.980;2022-12-07T10:34:41;101527.41;;;-8.47;65.69
69982;BME280;57319;56.274;43.980;2022-12-07T10:39:45;101530.13;;;-8.44;64.60
69982;BME280;57319;56.274;43.980;2022-12-07T10:42:26;101533.50;;;-8.44;65.34
69982;BME280;57319;56.274;43.980;2022-12-07T10:47:55;101536.72;;;-8.36;64.67
69982;BME280;57319;56.274;43.980;2022-12-07T11:04:15;101532.94;;;-8.87;66.79
69982;BME280;57319;56.274;43.980;2022-12-07T11:07:02;101521.03;;;-8.89;67.07
69982;BME280;57319;56.274;43.980;2022-12-07T11:09:51;101536.00;;;-8.72;67.49
69982;BME280;57319;56.274;43.980;2022-12-07T11:15:25;101528.41;;;-8.91;66.67
69982;BME280;57319;56.274;43.980;2022-12-07T11:18:06;101535.00;;;-8.91;66.98
69982;BME280;57319;56.274;43.980;2022-12-07T11:21:07;101537.22;;;-8.94;67.84
69982;BME280;57319;56.274;43.980;2022-12-07T11:37:34;101517.00;;;-9.50;69.66
69982;BME280;57319;56.274;43.980;2022-12-07T11:43:05;101520.53;;;-9.65;69.79
69982;BME280;57319;56.274;43.980;2022-12-07T11:45:37;101513.06;;;-9.65;69.47
69982;BME280;57319;56.274;43.980;2022-12-07T11:51:10;101508.66;;;-9.77;69.84
69982;BME280;57319;56.274;43.980;2022-12-07T11:58:45;101517.44;;;-9.89;70.06
69982;BME280;57319;56.274;43.980;2022-12-07T12:06:34;101506.81;;;-10.13;71.51
69982;BME280;57319;56.274;43.980;2022-12-07T12:12:10;101509.72;;;-10.17;71.93
69982;BME280;57319;56.274;43.980;2022-12-07T12:20:26;101527.31;;;-10.24;71.55
69982;BME280;57319;56.274;43.980;2022-12-07T12:25:48;101509.56;;;-10.36;72.08
69982;BME280;57319;56.274;43.980;2022-12-07T12:28:41;101515.88;;;-10.39;71.95
69982;BME280;57319;56.274;43.980;2022-12-07T12:31:39;101521.28;;;-10.44;71.87
69982;BME280;57319;56.274;43.980;2022-12-07T12:37:43;101513.41;;;-10.64;72.54
69982;BME280;57319;56.274;43.980;2022-12-07T12:50:24;101506.28;;;-10.86;71.99
69982;BME280;57319;56.274;43.980;2022-12-07T12:52:54;101515.03;;;-10.89;72.35
69982;BME280;57319;56.274;43.980;2022-12-07T12:55:29;101513.38;;;-10.98;71.81
69982;BME280;57319;56.274;43.980;2022-12-07T13:01:33;101509.97;;;-11.07;71.86
69982;BME280;57319;56.274;43.980;2022-12-07T13:03:33;101512.50;;;-10.98;72.00
69982;BME280;57319;56.274;43.980;2022-12-07T13:08:45;101503.81;;;-11.11;72.72
69982;BME280;57319;56.274;43.980;2022-12-07T13:11:29;101508.06;;;-11.10;72.35
69982;BME280;57319;56.274;43.980;2022-12-07T13:17:00;101497.06;;;-11.12;73.24
69982;BME280;57319;56.274;43.980;2022-12-07T13:27:26;101497.72;;;-11.21;73.77
69982;BME280;57319;56.274;43.980;2022-12-07T13:29:53;101490.28;;;-11.21;73.44
69982;BME280;57319;56.274;43.980;2022-12-07T13:32:24;101494.47;;;-11.29;73.56
69982;BME280;57319;56.274;43.980;2022-12-07T13:34:51;101493.47;;;-11.22;73.80
69982;BME280;57319;56.274;43.980;2022-12-07T13:39:54;101487.66;;;-11.39;73.95
69982;BME280;57319;56.274;43.980;2022-12-07T13:42:33;101485.28;;;-11.46;74.52
69982;BME280;57319;56.274;43.980;2022-12-07T13:45:00;101492.28;;;-11.51;74.08
69982;BME280;57319;56.274;43.980;2022-12-07T13:47:44;101490.41;;;-11.45;74.13
69982;BME280;57319;56.274;43.980;2022-12-07T13:50:28;101491.56;;;-11.50;74.37
69982;BME280;57319;56.274;43.980;2022-12-07T13:52:56;101487.59;;;-11.48;74.04
69982;BME280;57319;56.274;43.980;2022-12-07T13:55:22;101485.69;;;-11.50;74.50
69982;BME280;57319;56.274;43.980;2022-12-07T13:57:51;101492.72;;;-11.46;74.59
69982;BME280;57319;56.274;43.980;2022-12-07T14:00:21;101483.34;;;-11.49;73.81
69982;BME280;57319;56.274;43.980;2022-12-07T14:03:04;101473.03;;;-11.61;73.68
69982;BME280;57319;56.274;43.980;2022-12-07T14:05:45;101476.56;;;-11.58;74.15
69982;BME280;57319;56.274;43.980;2022-12-07T14:10:53;101483.53;;;-11.63;74.27
69982;BME280;57319;56.274;43.980;2022-12-07T14:13:35;101493.63;;;-11.62;73.55
69982;BME280;57319;56.274;43.980;2022-12-07T14:16:03;101478.47;;;-11.72;73.90
69982;BME280;57319;56.274;43.980;2022-12-07T14:23:37;101481.38;;;-11.76;73.72
69982;BME280;57319;56.274;43.980;2022-12-07T14:26:18;101479.38;;;-11.71;73.66
69982;BME280;57319;56.274;43.980;2022-12-07T14:28:44;101474.31;;;-11.80;73.72
69982;BME280;57319;56.274;43.980;2022-12-07T14:31:18;101463.22;;;-11.84;74.39
69982;BME280;57319;56.274;43.980;2022-12-07T14:33:46;101474.31;;;-11.80;74.41
69982;BME280;57319;56.274;43.980;2022-12-07T14:36:13;101481.06;;;-11.79;74.18
69982;BME280;57319;56.274;43.980;2022-12-07T14:38:39;101471.94;;;-11.87;74.02
69982;BME280;57319;56.274;43.980;2022-12-07T14:41:17;101472.66;;;-11.88;73.68
69982;BME280;57319;56.274;43.980;2022-12-07T14:44:12;101463.78;;;-11.86;73.80
69982;BME280;57319;56.274;43.980;2022-12-07T14:46:38;101471.47;;;-11.92;74.32
69982;BME280;57319;56.274;43.980;2022-12-07T14:49:03;101468.59;;;-11.88;74.08
69982;BME280;57319;56.274;43.980;2022-12-07T14:51:29;101477.56;;;-11.81;74.20
69982;BME280;57319;56.274;43.980;2022-12-07T14:53:55;101479.88;;;-11.83;74.04
69982;BME280;57319;56.274;43.980;2022-12-07T14:56:20;101471.94;;;-11.87;73.25
69982;BME280;57319;56.274;43.980;2022-12-07T14:58:46;101465.69;;;-11.84;73.77
69982;BME280;57319;56.274;43.980;2022-12-07T15:01:13;101459.06;;;-11.92;73.20
69982;BME280;57319;56.274;43.980;2022-12-07T15:03:39;101472.84;;;-11.87;73.66